Latest Weather Observations for Hogan Island

IDV60801

Issued at 3:02 pm EDT Saturday 7 March 2015 (issued every 30 minutes, with the page automatically refreshed every 10 minutes)

About weather observations | Map of weather stations | Latest weather observations for VIC | Other Formats
Station Details ID: 200838 Name: HOGAN ISLAND Lat: -39.22 Lon: 146.98 Height: 116.0 m
Data from the previous 72 hours. | See also: Recent months at Hogan Island
Date/Time
EDT
Temp
°C
App
Temp
°C
Dew
Point
Rel
Hum
%
Delta-T
°C
Wind Press
QNH
hPa
Press
MSL
hPa
Rain
since 9 am
mm
Dir
 
Spd
km/h
Gust
km/h
Spd
kts
Gust
kts
07/03:00pm 16.4 7.4 14.1 86 1.3 W 54 63 29 34 1008.5 1008.3 0.8
07/02:30pm 16.9 7.5 14.4 85 1.4 W 57 67 31 36 1008.3 - 0.8
07/02:00pm 16.9 7.0 15.1 89 1.0 W 61 72 33 39 1008.2 - 0.8
07/01:30pm 16.4 7.2 14.9 91 0.9 W 57 69 31 37 1008.3 - 0.8
07/01:06pm 16.1 4.9 13.6 85 1.4 W 65 91 35 49 1007.9 - 0.4
07/01:00pm 16.6 6.4 14.2 86 1.4 W 61 74 33 40 1008.1 - 0.4
07/12:44pm 16.5 6.6 14.0 85 1.4 W 59 80 32 43 1008.3 - 0.4
07/12:30pm 17.2 9.3 14.8 86 1.4 W 50 65 27 35 1008.6 - 0.4
07/12:13pm 15.9 6.3 13.4 85 1.4 WNW 56 74 30 40 1008.5 - 0.4
07/12:00pm 16.8 7.5 14.6 87 1.3 W 57 69 31 37 1008.6 1008.4 0.4
07/11:30am 15.8 7.6 14.2 90 0.9 WNW 50 59 27 32 1009.2 - 0.4
07/11:07am 16.3 6.9 14.5 89 1.0 WNW 57 76 31 41 1009.0 - 0.4
07/11:00am 16.3 6.2 14.7 90 0.9 W 61 76 33 41 1008.6 - 0.4
07/10:30am 16.0 5.9 14.5 91 0.9 W 61 69 33 37 1008.6 - 0.4
07/10:00am 15.4 7.1 13.8 90 0.9 W 50 61 27 33 1008.6 - 0.2
07/09:47am 16.2 10.7 14.6 90 0.9 WNW 37 54 20 29 1008.7 - 0.0
07/09:30am 16.2 6.6 14.0 87 1.3 W 57 70 31 38 1008.7 - 0.0
07/09:00am 16.3 7.8 14.3 88 1.1 W 52 59 28 32 1008.5 1008.3 1.4
07/08:30am 15.9 7.0 14.3 90 0.9 W 54 61 29 33 1008.5 - 1.4
07/08:00am 15.6 7.5 14.3 92 0.7 W 50 57 27 31 1008.6 - 1.4
07/07:30am 15.0 6.6 13.5 91 0.8 W 50 65 27 35 1008.3 - 1.4
07/07:00am 15.4 6.8 13.9 91 0.9 W 52 59 28 32 1008.0 - 0.6
07/06:30am 15.0 6.7 13.7 92 0.7 W 50 57 27 31 1007.9 - 0.6
07/06:00am 14.9 6.2 13.6 92 0.7 W 52 67 28 36 1007.8 1007.6 0.6
07/05:30am 14.8 5.6 13.5 92 0.7 W 54 65 29 35 1007.9 - 0.6
07/05:00am 14.8 5.7 13.7 93 0.6 W 54 63 29 34 1007.8 - 0.6
07/04:30am 14.9 7.3 13.6 92 0.7 W 46 57 25 31 1008.0 - 0.6
07/04:00am 15.0 8.3 13.5 91 0.8 W 41 50 22 27 1008.3 - 0.6
07/03:30am 15.4 9.4 13.2 87 1.2 W 37 43 20 23 1008.5 - 0.6
07/03:00am 15.4 8.1 12.9 85 1.4 W 43 48 23 26 1008.7 1008.5 0.6
07/02:30am 15.5 8.6 12.8 84 1.5 W 41 46 22 25 1009.0 - 0.6
07/02:00am 15.5 8.1 12.4 82 1.7 W 43 50 23 27 1009.2 - 0.6
07/01:30am 15.4 7.3 12.0 80 1.9 W 46 54 25 29 1009.3 - 0.6
07/01:00am 15.1 6.0 11.3 78 2.0 WSW 50 57 27 31 1009.3 - 0.6
07/12:30am 15.3 5.5 11.3 77 2.2 WSW 54 61 29 33 1009.3 - 0.6
07/12:00am 15.2 4.8 10.8 75 2.3 W 56 63 30 34 1009.5 1009.3 0.6
 
Date/Time
EDT
Temp
°C
App
Temp
°C
Dew
Point
Rel
Hum
%
Delta-T
°C
Wind Press
QNH
hPa
Press
MSL
hPa
Rain
since 9 am
mm
Dir
 
Spd
km/h
Gust
km/h
Spd
kts
Gust
kts
06/11:30pm 15.0 4.0 10.4 74 2.4 WSW 59 69 32 37 1009.5 - 0.6
06/11:00pm 14.9 3.4 10.3 74 2.4 WSW 61 72 33 39 1009.6 - 0.6
06/10:30pm 14.8 3.7 10.2 74 2.4 WSW 59 70 32 38 1009.4 - 0.6
06/10:00pm 14.6 3.8 9.8 73 2.5 WSW 57 69 31 37 1009.2 - 0.6
06/09:30pm 14.7 3.6 10.1 74 2.4 WSW 59 69 32 37 1009.0 - 0.6
06/09:00pm 14.9 3.8 10.3 74 2.4 WSW 59 69 32 37 1008.7 1008.5 0.6
06/08:30pm 14.6 2.3 10.0 74 2.4 WSW 65 76 35 41 1008.0 - 0.6
06/08:00pm 14.4 1.6 9.6 73 2.5 W 67 80 36 43 1007.7 - 0.6
06/07:30pm 14.6 1.4 9.6 72 2.6 W 69 80 37 43 1007.5 - 0.6
06/07:00pm 15.1 2.8 9.9 71 2.7 WSW 65 74 35 40 1007.4 - 0.6
06/06:30pm 15.3 1.2 9.7 69 2.9 WSW 74 85 40 46 1006.5 - 0.6
06/06:00pm 15.7 0.6 8.9 64 3.5 WSW 78 89 42 48 1006.1 1005.9 0.6
06/05:30pm 16.2 1.7 9.6 65 3.5 WSW 76 89 41 48 1006.0 - 0.6
06/05:00pm 15.7 0.9 10.0 69 3.0 W 78 89 42 48 1005.7 - 0.6
06/04:30pm 16.5 1.6 9.4 63 3.7 W 78 91 42 49 1005.2 - 0.6
06/04:00pm 16.8 1.2 9.7 63 3.7 WSW 82 96 44 52 1005.1 - 0.6
06/03:30pm 16.9 2.9 10.1 64 3.6 WSW 74 85 40 46 1005.8 - 0.6
06/03:03pm 17.1 2.2 9.5 61 4.0 WSW 78 98 42 53 1004.8 - 0.6
06/03:00pm 17.4 3.1 10.3 63 3.8 WSW 76 89 41 48 1005.5 1005.3 0.6
06/02:30pm 17.2 1.5 10.1 63 3.8 WSW 83 95 45 51 1004.5 - 0.6
06/02:00pm 17.0 0.4 9.4 61 4.0 WSW 87 109 47 59 1003.7 - 0.6
06/01:50pm 17.4 2.8 10.5 64 3.7 WSW 78 96 42 52 1005.1 - 0.6
06/01:30pm 17.0 1.1 10.8 67 3.3 WSW 85 98 46 53 1004.4 - 0.6
06/01:01pm 17.0 3.0 11.5 70 3.0 WSW 76 95 41 51 1004.6 - 0.6
06/01:00pm 16.1 1.5 10.6 70 2.9 WSW 78 95 42 51 1004.5 - 0.6
06/12:39pm 15.9 3.2 11.1 73 2.6 WSW 69 87 37 47 1004.9 - 0.6
06/12:30pm 17.1 4.6 12.6 75 2.5 WSW 70 82 38 44 1004.9 - 0.6
06/12:13pm 16.8 3.5 12.3 75 2.5 WSW 74 93 40 50 1004.9 - 0.6
06/12:00pm 15.9 1.8 12.3 79 2.0 WSW 78 93 42 50 1004.5 1004.3 0.6
06/11:35am 15.5 1.8 12.3 81 1.8 WSW 76 95 41 51 1004.1 - 0.6
06/11:30am 16.4 2.6 13.3 82 1.7 WSW 78 95 42 51 1004.3 - 0.6
06/11:00am 15.9 1.4 14.1 89 1.0 WSW 83 102 45 55 1003.1 - 0.6
06/10:38am 15.4 1.1 13.9 91 0.8 WSW 82 100 44 54 1003.2 - 0.6
06/10:30am 14.7 0.5 13.2 91 0.8 WSW 80 93 43 50 1003.6 - 0.6
06/10:00am 15.1 -1.5 13.3 89 1.0 W 93 111 50 60 1002.4 - 0.6
06/09:41am 15.1 -0.2 13.8 92 0.7 W 87 106 47 57 1002.4 - 0.6
06/09:30am 14.9 -1.2 13.6 92 0.7 W 91 102 49 55 1002.0 - 0.6
06/09:00am 14.8 -1.5 13.2 90 0.9 W 91 113 49 61 1001.7 1001.5 0.0
06/08:30am 15.1 -1.9 13.3 89 1.0 W 95 115 51 62 1000.6 - 0.0
06/08:18am 15.5 -1.0 13.7 89 1.0 W 93 111 50 60 1000.9 - 0.0
06/08:00am 15.6 -1.5 13.6 88 1.1 W 96 109 52 59 1000.9 - 0.0
06/07:30am 14.9 -3.0 13.4 91 0.8 W 100 120 54 65 1000.5 - 0.0
06/07:00am 14.4 -2.9 13.1 92 0.7 W 96 117 52 63 1000.1 - 0.0
06/06:34am 14.4 -4.0 13.1 92 0.7 W 102 130 55 70 999.7 - 0.0
06/06:30am 14.6 -3.7 13.3 92 0.7 W 102 117 55 63 1000.0 - 0.0
06/06:00am 14.7 -3.9 13.6 93 0.6 W 104 124 56 67 1000.0 999.8 0.0
06/05:30am 13.8 -5.1 12.7 93 0.6 W 104 124 56 67 999.9 - 0.0
06/05:27am 13.9 -4.6 12.8 93 0.6 W 102 122 55 66 1000.1 - 0.0
06/05:00am 13.5 -4.4 12.4 93 0.6 W 98 113 53 61 1000.6 - 0.0
06/04:30am 13.7 -4.5 12.4 92 0.7 W 100 122 54 66 1001.0 - 0.0
06/04:00am 13.4 -4.7 11.8 90 0.9 W 98 119 53 64 1001.7 - 0.0
06/03:30am 14.0 -4.8 11.7 86 1.2 W 102 124 55 67 1001.8 - 0.0
06/03:01am 15.0 -3.6 10.0 72 2.6 W 98 120 53 65 1001.6 - 0.0
06/03:00am 15.0 -3.5 10.2 73 2.5 W 98 115 53 62 1001.8 1001.6 0.0
06/02:30am 15.0 -3.5 10.2 73 2.5 W 98 122 53 66 1002.6 - 0.0
06/02:00am 15.0 -3.6 10.0 72 2.6 W 98 119 53 64 1003.4 - 0.0
06/01:41am 15.1 -3.6 9.5 69 2.9 W 98 119 53 64 1003.6 - 0.0
06/01:30am 14.8 -3.4 10.0 73 2.5 W 96 113 52 61 1004.1 - 0.0
06/01:00am 14.9 -3.5 9.1 68 3.0 W 96 117 52 63 1004.5 - 0.0
06/12:30am 14.9 -1.2 9.9 72 2.6 W 85 104 46 56 1005.1 - 0.0
06/12:03am 14.7 -3.7 9.1 69 2.9 W 96 115 52 62 1005.7 - 0.0
06/12:00am 14.8 -4.4 9.0 68 3.0 W 100 115 54 62 1005.6 1005.4 0.0
 
Date/Time
EDT
Temp
°C
App
Temp
°C
Dew
Point
Rel
Hum
%
Delta-T
°C
Wind Press
QNH
hPa
Press
MSL
hPa
Rain
since 9 am
mm
Dir
 
Spd
km/h
Gust
km/h
Spd
kts
Gust
kts
05/11:30pm 12.7 -6.0 9.5 81 1.6 W 98 120 53 65 1006.2 - 0.0
05/11:17pm 14.9 -1.9 8.6 66 3.2 W 87 107 47 58 1006.1 - 0.0
05/11:00pm 15.0 -3.1 8.3 64 3.4 W 93 107 50 58 1006.5 - 0.0
05/10:30pm 14.8 -3.2 8.7 67 3.1 W 93 104 50 56 1006.8 - 0.0
05/10:00pm 13.7 -3.2 9.9 78 2.0 W 89 107 48 58 1007.6 - 0.0
05/09:32pm 13.8 -2.1 9.5 75 2.2 W 83 107 45 58 1007.6 - 0.0
05/09:30pm 14.4 -1.5 9.2 71 2.7 W 83 98 45 53 1007.9 - 0.0
05/09:02pm 13.9 -2.0 9.3 74 2.4 W 83 102 45 55 1008.2 - 0.0
05/09:00pm 13.7 -2.6 9.4 75 2.2 W 85 102 46 55 1008.1 1007.9 0.0
05/08:48pm 14.2 -1.2 9.0 71 2.7 W 80 107 43 58 1008.1 - 0.0
05/08:30pm 14.7 -0.3 7.7 63 3.5 W 76 89 41 48 1008.5 - 0.0
05/08:00pm 14.4 -1.6 6.7 60 3.8 W 80 95 43 51 1008.8 - 0.0
05/07:57pm 14.5 -0.6 7.1 61 3.6 W 76 95 41 51 1008.6 - 0.0
05/07:30pm 14.5 -1.4 7.1 61 3.6 W 80 93 43 50 1009.4 - 0.0
05/07:00pm 14.5 -0.6 7.1 61 3.6 W 76 95 41 51 1009.5 - 0.0
05/06:58pm 14.4 -0.6 7.7 64 3.3 W 76 95 41 51 1009.7 - 0.0
05/06:30pm 14.2 -0.6 6.8 61 3.6 W 74 83 40 45 1010.0 - 0.0
05/06:00pm 14.5 -0.4 6.3 58 4.0 W 74 85 40 46 1010.2 1010.0 0.0
05/05:30pm 15.1 -1.2 5.0 51 4.8 W 80 93 43 50 1010.4 - 0.0
05/05:00pm 15.3 -0.4 6.3 55 4.4 W 78 89 42 48 1010.7 - 0.0
05/04:44pm 15.2 0.6 6.2 55 4.4 WSW 72 91 39 49 1010.9 - 0.0
05/04:30pm 14.9 -0.2 7.2 60 3.8 W 76 87 41 47 1011.1 - 0.0
05/04:00pm 15.4 0.7 7.4 59 4.0 W 74 83 40 45 1011.2 - 0.0
05/03:30pm 15.9 1.3 5.8 51 4.9 W 72 87 39 47 1011.3 - 0.0
05/03:00pm 15.5 0.7 5.1 50 5.0 W 72 83 39 45 1011.5 1011.3 0.0
05/02:33pm 14.4 0.8 6.0 57 4.0 WSW 67 85 36 46 1011.8 - 0.0
05/02:30pm 14.9 1.8 6.7 58 4.0 WSW 65 76 35 41 1012.1 - 0.0
05/02:00pm 15.7 2.6 6.7 55 4.4 WSW 65 80 35 43 1012.6 - 0.0
05/01:30pm 15.6 2.6 7.4 58 4.1 WSW 65 76 35 41 1012.6 - 0.0
05/01:05pm 15.3 2.3 7.3 59 4.0 WSW 65 83 35 45 1012.5 - 0.0
05/01:00pm 15.5 2.0 6.5 55 4.4 WSW 67 83 36 45 1012.5 - 0.0
05/12:30pm 14.6 1.3 5.7 55 4.3 WSW 65 80 35 43 1012.9 - 0.0
05/12:00pm 13.9 -0.7 6.0 59 3.8 WSW 72 87 39 47 1012.5 1012.3 0.0
05/11:54am 14.8 1.2 6.1 56 4.2 WSW 67 87 36 47 1012.4 - 0.0
05/11:30am 14.6 -0.2 6.9 60 3.8 WSW 74 87 40 47 1012.1 - 0.0
05/11:00am 12.3 -3.6 6.8 69 2.6 WSW 80 102 43 55 1012.1 - 0.0
05/10:56am 12.1 -5.6 6.4 68 2.7 WSW 89 102 48 55 1011.7 - 0.0
05/10:37am 14.0 0.0 6.1 59 3.8 WSW 69 89 37 48 1011.4 - 0.0
05/10:30am 13.8 -0.1 6.4 61 3.6 WSW 69 82 37 44 1011.2 - 0.0
05/10:03am 14.1 -1.0 5.5 56 4.1 WSW 74 93 40 50 1010.9 - 0.0
05/10:00am 13.7 -2.3 4.8 55 4.1 WSW 78 93 42 50 1010.5 - 0.0
05/09:30am 13.4 -1.7 5.3 58 3.8 SW 74 93 40 50 1010.2 - 0.0
05/09:00am 11.1 -5.3 6.6 74 2.1 WSW 82 107 44 58 1009.2 1009.0 1.6
05/08:30am 12.3 -4.5 7.2 71 2.5 WSW 85 107 46 58 1008.6 - 1.6
05/08:01am 12.5 -3.3 7.2 70 2.6 WSW 80 98 43 53 1008.4 - 1.6
05/08:00am 12.4 -3.9 6.9 69 2.7 WSW 82 98 44 53 1008.3 - 1.6
05/07:45am 11.5 -7.0 6.4 71 2.4 WSW 93 111 50 60 1008.0 - 1.6
05/07:41am 11.5 -7.4 7.0 74 2.2 WSW 96 111 52 60 1007.7 - 1.6
05/07:30am 11.6 -3.5 7.3 75 2.1 WSW 76 100 41 54 1007.6 - 1.4
05/07:00am 11.1 -4.2 8.0 81 1.5 W 78 102 42 55 1007.0 - 1.2
05/06:30am 11.4 -5.7 7.5 77 1.9 WSW 87 109 47 59 1005.7 - 1.2
05/06:24am 10.8 -6.4 7.1 78 1.8 SW 87 115 47 62 1005.7 - 1.2
05/06:19am 11.0 -10.2 6.4 73 2.2 WSW 107 117 58 63 1005.2 - 1.2
05/06:17am 11.6 -4.8 7.1 74 2.2 SW 83 126 45 68 1005.5 - 1.2
05/06:16am 11.4 -4.1 6.9 74 2.2 WSW 78 126 42 68 1005.7 - 1.2
05/06:00am 13.0 -7.3 5.9 62 3.4 WSW 102 120 55 65 1004.3 1004.1 1.2
05/05:30am 13.0 -8.6 5.9 62 3.4 WSW 109 130 59 70 1003.3 - 1.2
05/05:10am 12.1 -10.7 7.6 74 2.2 WSW 117 135 63 73 1002.7 - 1.2
05/05:06am 12.6 -10.5 7.9 73 2.3 WSW 119 135 64 73 1001.6 - 1.2
05/05:02am 12.7 -6.2 8.8 77 2.0 W 98 117 53 63 1003.0 - 1.2
05/05:00am 12.5 -7.2 8.4 76 2.0 W 102 117 55 63 1002.9 - 1.2
05/04:49am 12.3 -6.2 8.2 76 2.0 W 95 120 51 65 1002.6 - 1.2
05/04:47am 12.0 -7.5 7.9 76 2.0 WSW 100 130 54 70 1002.4 - 1.2
05/04:35am 11.3 -12.3 8.3 82 1.5 WSW 122 143 66 77 1001.8 - 1.2
05/04:33am 11.2 -13.5 8.2 82 1.5 WSW 128 143 69 77 1001.3 - 1.2
05/04:32am 11.9 -7.3 9.1 83 1.4 W 100 143 54 77 1001.6 - 1.2
05/04:30am 12.5 -5.5 10.0 85 1.3 W 95 119 51 64 1002.2 - 1.2
05/04:00am 12.5 -7.4 10.6 88 1.0 WSW 106 126 57 68 1001.8 - 1.2
05/03:31am 12.8 -5.0 11.4 91 0.7 W 96 119 52 64 1001.1 - 0.8
05/03:30am 12.9 -4.9 11.5 91 0.7 W 96 113 52 61 1001.3 - 0.8
05/03:17am 13.6 -3.4 12.0 90 0.9 W 93 133 50 72 1001.1 - 0.6
05/03:00am 13.5 -1.6 12.2 92 0.7 W 83 102 45 55 1001.8 1001.6 0.6
05/02:30am 13.9 -2.9 12.8 93 0.6 W 93 111 50 60 1001.8 - 0.4
05/02:00am 13.3 -4.7 12.0 92 0.7 W 98 128 53 69 1001.7 - 0.2
05/01:44am 15.1 -3.5 12.4 84 1.5 WNW 102 120 55 65 1001.1 - 0.0
05/01:43am 15.5 -3.4 12.8 84 1.5 WNW 104 117 56 63 1001.2 - 0.0
05/01:33am 17.6 2.5 12.1 70 3.0 WNW 83 102 45 55 1002.5 - 0.0
05/01:30am 17.4 1.4 11.7 69 3.1 WNW 87 102 47 55 1002.2 - 0.0
05/01:15am 17.3 4.7 12.2 72 2.8 WNW 70 91 38 49 1002.5 - 0.0
05/01:00am 17.5 3.8 12.4 72 2.8 WNW 76 91 41 49 1002.9 - 0.0
05/12:32am 17.1 4.9 13.4 79 2.1 WNW 70 91 38 49 1003.1 - 0.0
05/12:30am 16.9 4.9 13.6 81 1.9 WNW 69 85 37 46 1003.2 - 0.0
05/12:00am 16.7 4.7 14.0 84 1.5 W 70 87 38 47 1004.0 1003.8 0.0
 
Date/Time
EDT
Temp
°C
App
Temp
°C
Dew
Point
Rel
Hum
%
Delta-T
°C
Wind Press
QNH
hPa
Press
MSL
hPa
Rain
since 9 am
mm
Dir
 
Spd
km/h
Gust
km/h
Spd
kts
Gust
kts
04/11:30pm 16.7 6.0 14.0 84 1.5 W 63 76 34 41 1004.3 - 0.0
04/11:13pm 16.6 7.3 14.1 85 1.4 W 56 74 30 40 1004.8 - 0.0
04/11:00pm 16.6 8.3 13.9 84 1.5 WNW 50 61 27 33 1005.4 - 0.0
04/10:30pm 16.7 6.4 14.0 84 1.5 W 61 69 33 37 1006.1 - 0.0
04/10:00pm 16.6 5.9 13.9 84 1.5 W 63 70 34 38 1006.4 - 0.0
04/09:30pm 16.8 5.7 13.9 83 1.7 W 65 72 35 39 1006.3 - 0.0
04/09:00pm 16.9 4.9 14.2 84 1.6 W 70 80 38 43 1006.1 1005.9 0.0
04/08:30pm 17.0 4.7 13.1 78 2.2 W 70 82 38 44 1006.0 - 0.0
04/08:00pm 17.2 3.2 12.7 75 2.5 W 78 89 42 48 1005.6 - 0.0
04/07:30pm 17.2 2.8 12.5 74 2.6 W 80 91 43 49 1005.8 - 0.0
04/07:00pm 17.5 5.6 12.6 73 2.7 W 67 80 36 43 1006.7 - 0.0
04/06:30pm 17.5 7.5 12.6 73 2.7 W 57 74 31 40 1007.4 - 0.0
04/06:00pm 18.1 8.1 12.5 70 3.1 WNW 57 67 31 36 1007.9 1007.7 0.0
04/05:30pm 17.6 6.5 12.7 73 2.7 WNW 63 76 34 41 1008.1 - 0.0
04/05:00pm 17.0 4.4 12.3 74 2.6 W 70 83 38 45 1007.9 - 0.0
04/04:30pm 18.4 6.5 12.8 70 3.2 W 67 76 36 41 1008.0 - 0.0
04/04:00pm 17.6 6.9 12.7 73 2.7 W 61 76 33 41 1008.3 - 0.0
04/03:30pm 17.7 7.6 12.4 71 3.0 W 57 69 31 37 1008.9 - 0.0

Other Formats:

Comma delimited format used in spreadsheet applications
http://www.bom.gov.au/fwo/IDV60801/IDV60801.94949.axf

JavaScript Object Notation format (JSON) in row-major order
http://www.bom.gov.au/fwo/IDV60801/IDV60801.94949.json